M I D A S
Marine Information and Data Acquisition System
Tripno 1001 of the Zeeleeuw from 2005-08-04 09:37:51 to 2005-08-04 16:00:00
Back to CruiseResearch ActivitiesStationsMapUnderway DataData graphs

EquipmentUnitsComment
TimeDGPSUTC
LatitudeDGPSDM.mWGS84
LongitudeDGPSDM.mWGS84
HeadingGyrodeg 
SOGDGPSknotsSpeed over ground
COGDGPSdegCourse over ground
DepthEcho soundermeters200 kHz
Missing or incorrect values are displayed as -999
Navigation data collected by the RV Zeeleeuw from 2005-08-04 09:39:46 to 2005-08-16 12:13:05
Time Latitude Longitude Heading SOG COG Depth
2005-08-04 09:40:51 51°13.618 2°56.023 119.6 4.1 296 -999
2005-08-04 09:41:52 51°13.653 2°55.917 121.7 4.5 298 -999
2005-08-04 09:42:51 51°13.677 2°55.822 108.8 3.4 286 9.3
2005-08-04 09:43:52 51°13.686 2°55.759 100.1 2.4 281 12.9
2005-08-04 09:44:51 51°13.681 2°55.755 59.7 1.3 234 -999
2005-08-04 09:45:52 51°13.721 2°55.763 348.6 3.4 348 13
2005-08-04 09:46:52 51°13.783 2°55.669 321.6 6.4 316 10.3
2005-08-04 09:47:52 51°13.899 2°55.575 340.8 8.2 337 10.6
2005-08-04 09:48:52 51°14.027 2°55.486 341.1 8.5 337 10.9
2005-08-04 09:49:51 51°14.154 2°55.39 335.8 8.8 331 10.9
2005-08-04 09:50:51 51°14.282 2°55.221 317.1 10.3 317 11
2005-08-04 09:51:52 51°14.39 2°54.991 311.3 11.1 306 11.1
2005-08-04 09:52:52 51°14.552 2°54.845 349.8 11.5 344 10.7
2005-08-04 09:53:51 51°14.74 2°54.751 347.6 12 341 10.4
2005-08-04 09:54:52 51°14.934 2°54.659 348.7 12 344 9.8
2005-08-04 09:55:52 51°15.125 2°54.566 348.1 12.1 342 9.3
2005-08-04 09:56:52 51°15.318 2°54.472 349.2 12 343 9.9
2005-08-04 09:57:52 51°15.511 2°54.379 349 12 343 10.4
2005-08-04 09:58:52 51°15.698 2°54.288 349.7 11.8 343 11.3
2005-08-04 09:59:51 51°15.885 2°54.193 347.7 11.9 341 11.9
2005-08-04 10:00:52 51°16.031 2°54.136 357.7 7 353 12.4
2005-08-04 10:01:52 51°16.113 2°54.146 12.6 4 13 12.4
2005-08-04 10:02:52 51°16.17 2°54.19 32.8 4.1 34 12.5
2005-08-04 10:03:51 51°16.223 2°54.26 34.8 3.7 38 12.6
2005-08-04 10:04:52 51°16.259 2°54.299 25.5 1.9 34 12.5
2005-08-04 10:05:52 51°16.264 2°54.317 24.9 0.6 103 12.6
2005-08-04 10:06:52 51°16.26 2°54.332 20.8 0.7 121 12.6
2005-08-04 10:07:52 51°16.253 2°54.346 18.5 0.7 131 12.5
2005-08-04 10:08:52 51°16.24 2°54.358 24.9 1 152 12.6
2005-08-04 10:09:50 51°16.226 2°54.369 40.3 1 155 12.6
2005-08-04 10:10:51 51°16.211 2°54.379 50.8 0.8 157 12.8
2005-08-04 10:11:52 51°16.199 2°54.39 55.8 0.9 148 12.7
2005-08-04 10:12:50 51°16.187 2°54.401 55.4 0.8 144 12.7
2005-08-04 10:13:50 51°16.177 2°54.415 53.6 0.8 140 12.8
2005-08-04 10:14:50 51°16.167 2°54.431 49.2 0.8 134 12.7
2005-08-04 10:15:52 51°16.159 2°54.446 44.2 0.7 128 12.7
2005-08-04 10:16:51 51°16.151 2°54.462 38 0.8 131 12.6
2005-08-04 10:17:51 51°16.144 2°54.478 34.9 0.8 126 12.8
2005-08-04 10:18:51 51°16.135 2°54.495 32.7 0.8 129 12.7
2005-08-04 10:19:52 51°16.127 2°54.513 33.1 0.8 134 12.7
2005-08-04 10:20:52 51°16.117 2°54.53 37.3 0.9 131 12.8
2005-08-04 10:21:51 51°16.106 2°54.548 40.2 1 133 12.6
2005-08-04 10:22:52 51°16.096 2°54.566 41.8 0.8 137 12.7
2005-08-04 10:23:51 51°16.086 2°54.582 43.2 0.8 137 12.8
2005-08-04 10:24:52 51°16.075 2°54.598 45.2 0.9 133 12.7
2005-08-04 10:25:52 51°16.065 2°54.614 45.4 0.8 133 12.7
2005-08-04 10:26:51 51°16.055 2°54.632 46.4 0.8 127 12.6
2005-08-04 10:27:52 51°16.045 2°54.65 48.6 0.9 130 12.5
2005-08-04 10:28:52 51°16.036 2°54.669 48.9 0.8 133 12.4
2005-08-04 10:29:52 51°16.026 2°54.687 45.9 1 127 12.7
2005-08-04 10:30:51 51°16.017 2°54.708 48.4 0.9 127 12.6
2005-08-04 10:31:52 51°16.015 2°54.735 41.7 1.6 64 12.5
2005-08-04 10:32:52 51°16.045 2°54.768 8.3 2.4 20 12.5
2005-08-04 10:33:51 51°16.082 2°54.751 323.6 2.7 328 12.6
2005-08-04 10:34:51 51°16.121 2°54.695 313.3 3.4 313 12.8
2005-08-04 10:35:52 51°16.145 2°54.623 289.6 2.9 288 13.1
2005-08-04 10:36:51 51°16.152 2°54.564 291.7 1.9 281 13
2005-08-04 10:37:51 51°16.17 2°54.53 314.3 1.7 320 13.2
2005-08-04 10:38:52 51°16.188 2°54.498 301.3 1.6 308 13.3
2005-08-04 10:39:51 51°16.202 2°54.459 293.5 1.7 295 13.2
2005-08-04 10:40:51 51°16.211 2°54.417 288.7 1.7 286 13.4
2005-08-04 10:41:51 51°16.221 2°54.379 297 1.4 302 13.4
2005-08-04 10:42:52 51°16.234 2°54.35 296.6 1.3 307 13.3
2005-08-04 10:43:51 51°16.245 2°54.322 293.3 1.3 304 13.3
2005-08-04 10:44:51 51°16.255 2°54.304 299.5 0.7 321 13.3
2005-08-04 10:45:50 51°16.265 2°54.303 311.6 0.7 11 13.3
2005-08-04 10:46:52 51°16.274 2°54.32 327.4 0.8 54 13.4
2005-08-04 10:47:52 51°16.271 2°54.352 354.9 1.4 110 13.4
2005-08-04 10:48:52 51°16.254 2°54.375 24.7 1.3 146 13.4
2005-08-04 10:49:52 51°16.236 2°54.386 48.3 1 167 13.4
2005-08-04 10:50:52 51°16.241 2°54.419 34 2.2 55 13.5
2005-08-04 10:51:51 51°16.285 2°54.435 330.5 2.3 353 13.4
2005-08-04 10:52:52 51°16.288 2°54.469 317.1 1.6 97 4.8
2005-08-04 10:53:52 51°16.294 2°54.443 260.2 1.7 257 13.5
2005-08-04 10:54:52 51°16.279 2°54.397 257 1.9 248 13.4
2005-08-04 10:55:51 51°16.271 2°54.358 257.7 1.1 245 13.4
2005-08-04 10:56:52 51°16.261 2°54.335 258.9 1.3 245 13.8
2005-08-04 10:57:51 51°16.257 2°54.32 266 0.4 246 13.6
2005-08-04 10:58:51 51°16.257 2°54.322 265.7 0.3 101 13.5
2005-08-04 10:59:52 51°16.256 2°54.339 262.6 0.8 91 13.7
2005-08-04 11:00:51 51°16.255 2°54.366 259.2 1.1 86 13.9
2005-08-04 11:01:52 51°16.256 2°54.401 248 1.4 87 13.8
2005-08-04 11:02:51 51°16.257 2°54.44 230.8 1.5 87 13.6
2005-08-04 11:03:52 51°16.25 2°54.464 228.1 1.1 177 13.7
2005-08-04 11:04:52 51°16.247 2°54.423 285.1 2.1 286 13.8
2005-08-04 11:05:51 51°16.271 2°54.38 299.5 2.3 315 13.7
2005-08-04 11:06:52 51°16.295 2°54.34 294 1.9 314 13.7
2005-08-04 11:07:51 51°16.317 2°54.306 295.2 1.9 316 13.7
2005-08-04 11:08:52 51°16.339 2°54.268 292.2 1.8 311 13.6
2005-08-04 11:09:51 51°16.353 2°54.236 287.6 1.5 306 14
2005-08-04 11:10:51 51°16.368 2°54.207 292.9 1.6 313 14
2005-08-04 11:11:51 51°16.391 2°54.177 299.7 1.9 323 13.9
2005-08-04 11:12:51 51°16.417 2°54.146 297.1 2 320 14
2005-08-04 11:13:52 51°16.441 2°54.112 293.5 1.9 315 14.2
2005-08-04 11:14:52 51°16.464 2°54.076 293.8 1.9 315 14.2
2005-08-04 11:15:52 51°16.486 2°54.039 293.5 1.9 314 14.2
2005-08-04 11:16:52 51°16.508 2°54.003 294.3 2 313 14.3
2005-08-04 11:17:52 51°16.532 2°53.965 295 2.1 315 14.3
2005-08-04 11:18:51 51°16.555 2°53.928 294 1.9 314 14.4
2005-08-04 11:19:52 51°16.576 2°53.892 294.2 1.9 314 14.4
2005-08-04 11:20:52 51°16.586 2°53.836 256 3 267 14.3
2005-08-04 11:21:51 51°16.522 2°53.869 147.3 6.2 129 14.4
2005-08-04 11:22:51 51°16.437 2°54.016 152.8 8 140 14.2
2005-08-04 11:23:51 51°16.349 2°54.149 140.7 6.2 127 14.2
2005-08-04 11:24:52 51°16.296 2°54.248 160.4 4.2 135 14
2005-08-04 11:25:51 51°16.256 2°54.306 176.4 2.8 140 13.9
2005-08-04 11:26:52 51°16.26 2°54.351 196.2 1.8 74 14
2005-08-04 11:27:51 51°16.266 2°54.394 193.9 1.6 75 14
2005-08-04 11:28:52 51°16.272 2°54.438 195.6 1.7 75 14
2005-08-04 11:29:52 51°16.27 2°54.477 201.7 1.7 155 14
2005-08-04 11:30:51 51°16.247 2°54.405 269.7 5.6 278 14
2005-08-04 11:31:52 51°16.351 2°54.243 317.8 10.7 320 14
2005-08-04 11:32:52 51°16.496 2°54.019 315.3 12.5 315 14.2
2005-08-04 11:33:52 51°16.647 2°53.791 315 12.5 316 14.2
2005-08-04 11:34:52 51°16.794 2°53.558 314.2 12.5 316 13.8
2005-08-04 11:35:51 51°16.943 2°53.332 316.2 12.5 318 10.8
2005-08-04 11:36:51 51°17.105 2°53.117 318.8 12.7 320 11.6
2005-08-04 11:37:52 51°17.265 2°52.892 315 12.6 317 12.2
2005-08-04 11:38:51 51°17.411 2°52.659 313.3 12.6 314 12.6
2005-08-04 11:39:52 51°17.56 2°52.419 313 12.6 315 13
2005-08-04 11:40:52 51°17.712 2°52.185 314.8 12.8 317 12.9
2005-08-04 11:41:51 51°17.864 2°51.956 315.7 12.8 318 13
2005-08-04 11:42:51 51°18.018 2°51.725 315.4 12.7 317 13.3
2005-08-04 11:43:51 51°18.173 2°51.494 315.5 12.7 317 14.3
2005-08-04 11:44:52 51°18.329 2°51.257 315.5 12.8 317 15.4
2005-08-04 11:45:52 51°18.431 2°51.101 303 6.4 312 16.2
2005-08-04 11:46:52 51°18.473 2°51.016 294.6 3.3 309 16.5
2005-08-04 11:47:51 51°18.492 2°51.013 281.3 1.2 54 16.6
2005-08-04 11:48:51 51°18.504 2°51.044 276.7 1.4 62 16.5
2005-08-04 11:49:51 51°18.513 2°51.081 273.7 1.6 72 16.7
2005-08-04 11:50:52 51°18.523 2°51.127 267.3 1.8 72 16.7
2005-08-04 11:51:51 51°18.533 2°51.173 257.6 1.9 70 16.6
2005-08-04 11:52:51 51°18.544 2°51.222 247.4 2 67 16.6
2005-08-04 11:53:52 51°18.556 2°51.27 234.3 1.9 66 16.5
2005-08-04 11:54:52 51°18.561 2°51.302 229.3 0.6 101 16.5
2005-08-04 11:55:52 51°18.56 2°51.229 281.5 4.2 280 16.5
2005-08-04 11:56:51 51°18.611 2°51.157 315 3.8 332 16.8
2005-08-04 11:57:52 51°18.666 2°51.121 317.1 3.3 338 16.9
2005-08-04 11:58:51 51°18.714 2°51.092 313.2 2.9 337 17.1
2005-08-04 11:59:51 51°18.759 2°51.067 316.7 2.9 343 17.1
2005-08-04 12:00:52 51°18.805 2°51.051 320.2 2.8 350 17.3
2005-08-04 12:01:51 51°18.849 2°51.041 321.4 2.7 353 17.4
2005-08-04 12:02:52 51°18.894 2°51.031 318.6 2.6 351 17.5
2005-08-04 12:03:52 51°18.933 2°51.02 316 2.4 349 17.6
2005-08-04 12:04:52 51°18.974 2°51.013 319.2 2.5 354 17.6
2005-08-04 12:05:52 51°19.016 2°51.007 318.9 2.4 354 17.6
2005-08-04 12:06:51 51°19.056 2°51.002 319.2 2.4 355 17.6
2005-08-04 12:07:52 51°19.097 2°50.998 318.6 2.4 356 17.6
2005-08-04 12:08:52 51°19.141 2°50.988 319.3 2.6 356 17.7
2005-08-04 12:09:51 51°19.163 2°50.887 253.9 4.9 278 17.4
2005-08-04 12:10:52 51°19.067 2°50.873 171.3 7.6 159 17.5
2005-08-04 12:11:51 51°18.917 2°50.927 179.5 9.7 169 17.4
2005-08-04 12:12:53 51°18.755 2°50.967 181.8 8.9 171 17.3
2005-08-04 12:13:51 51°18.657 2°50.987 192 5.1 175 17
2005-08-04 12:14:52 51°18.588 2°50.998 189.7 4.1 169 16.8
2005-08-04 12:15:51 51°18.526 2°51.025 192 3.4 169 16.7
2005-08-04 12:16:52 51°18.498 2°51.032 217.3 0.9 143 16.6
2005-08-04 12:17:52 51°18.498 2°51.056 224.8 0.9 84 16.7
2005-08-04 12:18:51 51°18.496 2°51.08 221.9 0.7 117 16.6
2005-08-04 12:19:51 51°18.427 2°51.137 152.9 8.5 140 16.2
2005-08-04 12:20:51 51°18.263 2°51.338 153.8 13.3 144 15.1
2005-08-04 12:21:51 51°18.079 2°51.526 155.8 13 147 13.8
2005-08-04 12:22:50 51°17.899 2°51.706 155.8 13.1 147 13
2005-08-04 12:23:51 51°17.711 2°51.898 154.5 12.9 145 12.8
2005-08-04 12:24:52 51°17.519 2°52.057 168 12.9 159 13
2005-08-04 12:25:50 51°17.322 2°52.157 172.1 12.9 165 13.2
2005-08-04 12:26:52 51°17.111 2°52.264 170.5 12.9 161 12.8
2005-08-04 12:27:52 51°16.907 2°52.372 170.6 12.7 161 12.2
2005-08-04 12:28:51 51°16.711 2°52.483 167.9 13 158 12.2
2005-08-04 12:29:51 51°16.506 2°52.605 169.1 13 160 14.2
2005-08-04 12:30:53 51°16.299 2°52.731 168.9 13.1 161 14.7
2005-08-04 12:31:52 51°16.101 2°52.878 161.8 13.4 150 14.7
2005-08-04 12:32:52 51°15.907 2°53.032 165.9 13.1 155 14.4
2005-08-04 12:33:51 51°15.716 2°53.179 165.4 12.9 155 13.9
2005-08-04 12:34:52 51°15.521 2°53.334 162.4 13 153 13.5
2005-08-04 12:35:51 51°15.347 2°53.531 148.7 12.9 140 12.9
2005-08-04 12:36:52 51°15.176 2°53.755 149.6 13.2 141 12.1
2005-08-04 12:37:51 51°15.003 2°53.973 148.7 13.4 142 11.6
2005-08-04 12:38:52 51°14.826 2°54.191 148.1 13.4 142 11.9
2005-08-04 12:39:51 51°14.667 2°54.435 140 13.6 129 12.5
2005-08-04 12:40:51 51°14.518 2°54.708 137.9 13.5 131 13
2005-08-04 12:41:52 51°14.391 2°54.999 129.9 12.1 122 12.9
2005-08-04 12:42:52 51°14.284 2°55.225 130.6 10.2 129 13
2005-08-04 12:43:50 51°14.169 2°55.385 154.1 8.4 152 12.8
2005-08-04 12:44:51 51°14.055 2°55.471 158.1 6.9 155 12.5
2005-08-04 12:45:51 51°13.959 2°55.542 156.8 6.2 154 13.2
2005-08-04 12:46:52 51°13.861 2°55.619 157 6.4 154 12.5
2005-08-04 12:47:51 51°13.78 2°55.687 149.4 4.8 147 11.9
2005-08-04 12:48:52 51°13.738 2°55.699 202.6 1.4 186 13.1
2005-08-04 12:49:53 51°13.736 2°55.694 238 2 226 -999
2005-08-04 12:50:53 51°13.737 2°55.715 258.3 2 76 -999
2005-08-04 12:51:50 51°13.736 2°55.712 296.5 1.1 114 12.9
2005-08-04 12:52:52 51°13.71 2°55.789 303.4 4 117 -999
2005-08-04 12:53:53 51°13.669 2°55.883 316.4 3.6 132 -999
2005-08-04 12:54:51 51°13.653 2°55.911 329.7 0.5 122 11.5
2005-08-04 12:55:52 51°13.668 2°55.902 334.7 1.7 333 11.7
2005-08-04 12:56:51 51°13.689 2°55.884 336 0.5 334 10.8
2005-08-04 12:57:52 51°13.686 2°55.886 341.4 0.5 171 11
2005-08-04 12:58:52 51°13.692 2°55.884 336 0.4 345 10.3
2005-08-04 12:59:52 51°13.693 2°55.885 340.4 -999 332 9.2
2005-08-04 13:00:51 51°13.694 2°55.887 330.8 0.1 79 9.1
2005-08-04 13:01:52 51°13.693 2°55.891 312 0.3 119 8.5
2005-08-16 09:30:00 51°13.691 2°55.896 311.7 -999 29 -999
2005-08-16 09:31:00 51°13.69 2°55.895 311.3 -999 195 -999
2005-08-16 09:32:00 51°13.691 2°55.894 310.2 -999 105 -999
2005-08-16 09:33:00 51°13.691 2°55.894 309.9 -999 296 -999
2005-08-16 09:34:00 51°13.691 2°55.894 309.8 -999 320 -999
2005-08-16 09:35:00 51°13.691 2°55.894 310.7 -999 258 -999
2005-08-16 09:36:00 51°13.691 2°55.895 310.4 -999 325 -999
2005-08-16 09:37:00 51°13.691 2°55.895 310.3 -999 185 -999
2005-08-16 09:38:00 51°13.69 2°55.896 310.7 -999 24 -999
2005-08-16 09:39:00 51°13.69 2°55.896 310.6 -999 2 -999
2005-08-16 09:40:00 51°13.69 2°55.896 310.4 -999 345 -999
2005-08-16 09:41:00 51°13.69 2°55.896 310.7 -999 339 -999
2005-08-16 09:42:00 51°13.691 2°55.895 310.4 -999 356 -999
2005-08-16 09:43:00 51°13.69 2°55.895 311.2 -999 283 -999
2005-08-16 09:44:00 51°13.69 2°55.895 310.6 -999 333 -999
2005-08-16 09:45:00 51°13.691 2°55.895 310.7 -999 310 -999
2005-08-16 09:46:00 51°13.691 2°55.895 311.2 -999 318 -999
2005-08-16 09:47:00 51°13.691 2°55.895 311 -999 260 -999
2005-08-16 09:48:00 51°13.691 2°55.896 310.2 -999 298 -999
2005-08-16 09:49:00 51°13.69 2°55.896 310.3 -999 319 -999
2005-08-16 09:50:00 51°13.69 2°55.896 310.8 -999 302 -999
2005-08-16 09:51:00 51°13.69 2°55.896 310 -999 321 -999
2005-08-16 09:52:00 51°13.69 2°55.896 310.1 -999 263 -999
2005-08-16 09:53:00 51°13.69 2°55.896 310.9 -999 354 -999
2005-08-16 09:54:00 51°13.69 2°55.896 310.2 -999 312 -999
2005-08-16 09:55:00 51°13.69 2°55.896 310.4 -999 256 -999
2005-08-16 09:56:00 51°13.69 2°55.895 310.2 -999 313 -999
2005-08-16 09:57:00 51°13.691 2°55.895 310.4 -999 284 -999
2005-08-16 09:58:00 51°13.692 2°55.895 310.2 -999 1 -999
2005-08-16 09:59:00 51°13.691 2°55.895 310.1 -999 335 -999
2005-08-16 10:00:00 51°13.691 2°55.896 310.5 -999 330 -999
2005-08-16 10:01:00 51°13.69 2°55.896 309.9 -999 218 -999
2005-08-16 10:02:00 51°13.69 2°55.897 310.3 -999 327 -999
2005-08-16 10:03:00 51°13.691 2°55.897 309.5 0.1 333 -999
2005-08-16 10:04:00 51°13.69 2°55.896 309.6 -999 256 -999
2005-08-16 10:05:00 51°13.69 2°55.897 310.6 -999 344 -999
2005-08-16 10:06:00 51°13.69 2°55.896 310.1 -999 235 -999
2005-08-16 10:07:00 51°13.69 2°55.896 310.3 -999 318 -999
2005-08-16 10:08:00 51°13.69 2°55.896 309.8 -999 20 -999
2005-08-16 10:09:00 51°13.691 2°55.896 309.4 -999 336 -999
2005-08-16 10:10:00 51°13.691 2°55.896 308.8 -999 306 -999
2005-08-16 10:11:00 51°13.692 2°55.896 309.1 -999 42 -999
2005-08-16 10:12:00 51°13.692 2°55.896 309.5 0.1 5 -999
2005-08-16 10:13:00 51°13.692 2°55.897 310.7 -999 235 -999
2005-08-16 10:14:00 51°13.692 2°55.896 310.1 -999 235 -999
2005-08-16 10:15:00 51°13.692 2°55.896 310.2 -999 297 -999
2005-08-16 10:16:00 51°13.692 2°55.896 309.3 -999 210 -999
2005-08-16 10:17:00 51°13.692 2°55.896 310.1 -999 34 -999
2005-08-16 10:18:00 51°13.692 2°55.897 309.9 -999 339 -999
2005-08-16 10:19:00 51°13.692 2°55.896 309.2 -999 354 -999
2005-08-16 10:20:00 51°13.692 2°55.896 309.8 0.1 37 -999
2005-08-16 10:21:00 51°13.692 2°55.895 309.9 -999 278 -999
2005-08-16 10:22:00 51°13.692 2°55.895 309.9 0.1 138 -999
2005-08-16 10:23:00 51°13.692 2°55.894 310.2 -999 244 -999
2005-08-16 10:24:00 51°13.691 2°55.894 309.8 -999 57 -999
2005-08-16 10:25:00 51°13.691 2°55.895 310 -999 43 -999
2005-08-16 10:26:00 51°13.692 2°55.895 309.9 -999 105 -999
2005-08-16 10:27:00 51°13.692 2°55.895 310.8 -999 248 -999
2005-08-16 10:28:00 51°13.691 2°55.895 309.9 -999 99 -999
2005-08-16 10:29:00 51°13.692 2°55.894 310.1 -999 172 -999
2005-08-16 10:30:00 51°13.692 2°55.894 310.4 -999 326 -999
2005-08-16 10:31:00 51°13.691 2°55.894 310.1 -999 334 -999
2005-08-16 10:32:00 51°13.691 2°55.894 310.1 0.1 184 -999
2005-08-16 10:33:00 51°13.691 2°55.894 309.5 -999 86 -999
2005-08-16 10:34:00 51°13.691 2°55.894 310.2 -999 8 -999
2005-08-16 10:35:00 51°13.692 2°55.894 311.2 -999 359 -999
2005-08-16 10:36:00 51°13.692 2°55.894 310.5 0.1 160 -999
2005-08-16 10:37:00 51°13.691 2°55.894 311.3 0.1 189 -999
2005-08-16 10:38:00 51°13.691 2°55.894 311.2 -999 359 -999
2005-08-16 10:39:00 51°13.691 2°55.895 311.3 -999 334 -999
2005-08-16 10:40:00 51°13.691 2°55.895 310.9 -999 359 -999
2005-08-16 10:41:00 51°13.691 2°55.895 309.9 -999 27 -999
2005-08-16 10:42:00 51°13.691 2°55.895 310.6 -999 202 -999
2005-08-16 10:43:00 51°13.691 2°55.894 309 -999 229 -999
2005-08-16 10:44:00 51°13.691 2°55.895 311.6 -999 131 -999
2005-08-16 10:45:00 51°13.691 2°55.895 311.3 -999 208 -999
2005-08-16 10:46:00 51°13.691 2°55.895 310.6 -999 337 -999
2005-08-16 10:47:00 51°13.691 2°55.896 311.3 -999 358 -999
2005-08-16 10:48:00 51°13.691 2°55.895 310.6 -999 -999 -999
2005-08-16 10:49:00 51°13.691 2°55.895 310.3 -999 214 -999
2005-08-16 10:50:00 51°13.691 2°55.895 310.9 -999 155 -999
2005-08-16 10:51:00 51°13.691 2°55.895 312 -999 280 -999
2005-08-16 10:52:00 51°13.691 2°55.895 311.9 -999 3 -999
2005-08-16 10:53:00 51°13.691 2°55.895 311.3 -999 205 -999
2005-08-16 10:54:00 51°13.691 2°55.895 310.4 -999 178 -999
2005-08-16 10:55:00 51°13.691 2°55.895 310.4 -999 19 -999
2005-08-16 10:56:00 51°13.691 2°55.894 310.3 -999 18 -999
2005-08-16 10:57:00 51°13.691 2°55.894 311.9 -999 65 -999
2005-08-16 10:58:00 51°13.691 2°55.894 311.4 -999 344 -999
2005-08-16 10:59:00 51°13.691 2°55.895 311.3 -999 345 -999
2005-08-16 11:00:00 51°13.691 2°55.895 311.8 -999 20 -999
2005-08-16 11:01:00 51°13.691 2°55.896 311.2 -999 296 -999
2005-08-16 11:02:00 51°13.692 2°55.896 311.3 -999 2 -999
2005-08-16 11:03:00 51°13.691 2°55.896 311.7 -999 169 -999
2005-08-16 11:04:00 51°13.691 2°55.895 311 -999 359 -999
2005-08-16 11:05:00 51°13.691 2°55.895 310.8 -999 293 -999
2005-08-16 11:06:00 51°13.692 2°55.895 310.8 -999 27 -999
2005-08-16 11:07:00 51°13.692 2°55.895 310.9 -999 259 -999
2005-08-16 11:08:00 51°13.692 2°55.895 310.5 -999 47 -999
2005-08-16 11:09:00 51°13.691 2°55.895 310.8 -999 61 -999
2005-08-16 11:10:00 51°13.691 2°55.896 310.9 -999 336 -999
2005-08-16 11:11:00 51°13.691 2°55.896 311.3 -999 331 -999
2005-08-16 11:12:00 51°13.691 2°55.895 310.5 -999 310 -999
2005-08-16 11:13:00 51°13.692 2°55.895 310.3 -999 88 -999
2005-08-16 11:14:00 51°13.691 2°55.895 311.3 -999 35 -999
2005-08-16 11:15:00 51°13.691 2°55.895 311.5 -999 262 -999
2005-08-16 11:16:00 51°13.691 2°55.895 310.9 -999 242 -999
2005-08-16 11:17:00 51°13.691 2°55.895 311.7 0.1 344 -999
2005-08-16 11:18:00 51°13.691 2°55.894 311 -999 198 -999
2005-08-16 11:19:00 51°13.69 2°55.894 310.5 -999 214 -999
2005-08-16 11:20:00 51°13.691 2°55.895 310.3 -999 27 -999
2005-08-16 11:21:00 51°13.691 2°55.896 310.5 -999 3 -999
2005-08-16 11:22:00 51°13.691 2°55.895 311 -999 342 -999
2005-08-16 11:23:00 51°13.692 2°55.896 311.5 -999 338 -999
2005-08-16 11:24:00 51°13.691 2°55.896 311.4 -999 219 -999
2005-08-16 11:25:00 51°13.692 2°55.896 311.3 -999 35 -999
2005-08-16 11:26:00 51°13.692 2°55.896 310.4 -999 191 -999
2005-08-16 11:27:00 51°13.691 2°55.896 310.4 -999 100 -999
2005-08-16 11:28:00 51°13.691 2°55.896 310.4 -999 16 -999
2005-08-16 11:29:00 51°13.691 2°55.896 311.2 -999 17 -999
2005-08-16 11:30:00 51°13.692 2°55.896 311 0.1 5 -999
2005-08-16 11:31:00 51°13.691 2°55.896 311.6 -999 227 -999
2005-08-16 11:32:00 51°13.691 2°55.896 310.6 -999 109 -999
2005-08-16 11:33:00 51°13.691 2°55.896 309.2 -999 62 -999
2005-08-16 11:34:00 51°13.692 2°55.896 309.7 -999 114 -999
2005-08-16 11:35:00 51°13.691 2°55.896 309.6 0.1 242 -999
2005-08-16 11:36:00 51°13.691 2°55.897 310.6 -999 156 -999
2005-08-16 11:37:00 51°13.691 2°55.897 310 -999 11 -999
2005-08-16 11:38:00 51°13.69 2°55.896 310.6 -999 354 -999
2005-08-16 11:39:00 51°13.69 2°55.895 307.4 0.1 255 -999
2005-08-16 11:40:00 51°13.69 2°55.895 305.7 0.1 202 -999
2005-08-16 11:41:00 51°13.691 2°55.896 307.3 0.1 48 -999
2005-08-16 11:42:00 51°13.69 2°55.896 307.7 0.1 224 -999
2005-08-16 11:43:00 51°13.69 2°55.894 305.1 0.2 295 -999
2005-08-16 11:44:00 51°13.703 2°55.856 298.1 2.8 296 -999
2005-08-16 11:45:00 51°13.698 2°55.757 235.9 4 236 -999
2005-08-16 11:46:00 51°13.708 2°55.754 213.6 2.2 26 -999
2005-08-16 11:47:00 51°13.705 2°55.752 175.1 0.5 213 -999
2005-08-16 11:48:00 51°13.707 2°55.753 141.5 1.9 142 -999
2005-08-16 11:49:00 51°13.682 2°55.824 118.1 3.8 115 -999
2005-08-16 11:50:00 51°13.654 2°55.916 119 3.8 116 -999
2005-08-16 11:51:00 51°13.628 2°56.002 115.6 3.5 114 -999
2005-08-16 11:52:00 51°13.613 2°56.057 120.6 1.6 114 -999
2005-08-16 11:53:00 51°13.61 2°56.065 125.7 0.1 139 -999
2005-08-16 11:54:00 51°13.61 2°56.066 125.5 -999 220 -999
2005-08-16 11:55:00 51°13.61 2°56.065 124.5 -999 337 -999
2005-08-16 11:56:00 51°13.609 2°56.065 125.6 -999 66 -999
2005-08-16 11:57:00 51°13.609 2°56.065 125.5 -999 211 -999
2005-08-16 11:58:00 51°13.609 2°56.066 125.2 -999 193 -999
2005-08-16 11:59:00 51°13.609 2°56.065 124.9 -999 317 -999
2005-08-16 12:00:00 51°13.609 2°56.065 124.6 -999 331 -999
2005-08-16 12:01:00 51°13.609 2°56.065 124.2 -999 299 -999
2005-08-16 12:02:00 51°13.609 2°56.066 124.2 -999 347 -999
2005-08-16 12:03:00 51°13.609 2°56.066 124.1 -999 195 -999
2005-08-16 12:04:00 51°13.609 2°56.066 122.5 -999 175 -999
2005-08-16 12:05:00 51°13.607 2°56.071 121.5 0.3 98 -999
2005-08-16 12:06:00 51°13.604 2°56.076 122.5 0.2 137 -999
2005-08-16 12:07:00 51°13.599 2°56.079 125.3 0.2 141 -999
2005-08-16 12:08:00 51°13.597 2°56.087 127.9 0.4 127 -999
2005-08-16 12:09:00 51°13.595 2°56.094 130.2 0.3 121 -999
2005-08-16 12:10:00 51°13.596 2°56.097 127 0.1 347 -999
2005-08-16 12:11:00 51°13.597 2°56.097 127.3 -999 102 -999
2005-08-16 12:12:00 51°13.596 2°56.099 125.8 0.1 117 -999
2005-08-16 12:13:00 51°13.595 2°56.103 123.7 0.2 93 -999